Time,TemperatureF,DewpointF,PressureIn,WindDirection,WindDirectionDegrees,WindSpeedMPH,WindSpeedGustMPH,Humidity,HourlyPrecipIn,Conditions,Clouds,dailyrainin,SoftwareType,DateUTC
2013-08-02 00:02:00,66.0,64.0,29.97,North,6,0.0,0.0,94,0.00,,,-99.99,,2013-08-02 04:02:00,
2013-08-02 00:22:00,66.0,64.0,29.97,North,6,0.0,0.0,94,0.00,,,-99.99,,2013-08-02 04:22:00,
2013-08-02 00:33:00,66.0,64.0,29.97,North,6,0.0,0.0,94,0.00,,,-99.99,,2013-08-02 04:33:00,
2013-08-02 00:43:00,65.0,64.0,29.98,North,6,0.0,0.0,95,0.00,,,-99.99,,2013-08-02 04:43:00,
2013-08-02 00:53:00,65.0,64.0,29.98,North,6,0.0,0.0,95,0.00,,,-99.99,,2013-08-02 04:53:00,
2013-08-02 01:02:00,64.0,62.0,29.97,North,6,0.0,0.0,94,0.00,,,-99.99,,2013-08-02 05:02:00,
2013-08-02 01:12:00,64.0,62.0,29.97,North,6,0.0,0.0,94,0.00,,,-99.99,,2013-08-02 05:12:00,
2013-08-02 01:22:00,64.0,63.0,29.97,North,6,0.0,0.0,95,0.00,,,-99.99,,2013-08-02 05:22:00,
2013-08-02 01:32:00,64.0,63.0,29.96,North,6,0.0,0.0,95,0.00,,,-99.99,,2013-08-02 05:32:00,
2013-08-02 01:43:00,64.0,63.0,29.96,North,6,0.0,0.0,95,0.00,,,-99.99,,2013-08-02 05:43:00,
2013-08-02 01:53:00,63.0,62.0,29.96,North,6,0.0,0.0,95,0.00,,,-99.99,,2013-08-02 05:53:00,
2013-08-02 02:02:00,63.0,62.0,29.96,North,6,0.0,0.0,95,0.00,,,-99.99,,2013-08-02 06:02:00,
2013-08-02 02:12:00,63.0,62.0,29.96,North,6,0.0,0.0,95,0.00,,,-99.99,,2013-08-02 06:12:00,
2013-08-02 02:22:00,62.0,61.0,29.96,North,6,0.0,0.0,95,0.00,,,-99.99,,2013-08-02 06:22:00,
2013-08-02 02:33:00,62.0,61.0,29.96,North,6,0.0,0.0,95,0.00,,,-99.99,,2013-08-02 06:33:00,
2013-08-02 02:43:00,62.0,61.0,29.96,North,6,0.0,0.0,95,0.00,,,-99.99,,2013-08-02 06:43:00,
2013-08-02 02:52:00,62.0,61.0,29.96,North,6,0.0,0.0,96,0.00,,,-99.99,,2013-08-02 06:52:00,
2013-08-02 03:02:00,62.0,61.0,29.96,North,6,0.0,0.0,96,0.00,,,-99.99,,2013-08-02 07:02:00,
2013-08-02 03:12:00,62.0,61.0,29.96,North,6,0.0,0.0,96,0.00,,,-99.99,,2013-08-02 07:12:00,
2013-08-02 03:22:00,62.0,61.0,29.96,North,6,0.0,0.0,96,0.00,,,-99.99,,2013-08-02 07:22:00,
2013-08-02 03:33:00,62.0,61.0,29.96,North,6,0.0,0.0,96,0.00,,,-99.99,,2013-08-02 07:33:00,
2013-08-02 03:44:00,61.0,60.0,29.96,North,6,0.0,0.0,96,0.00,,,-99.99,,2013-08-02 07:44:00,
2013-08-02 03:53:00,61.0,60.0,29.96,North,6,0.0,0.0,96,0.00,,,-99.99,,2013-08-02 07:53:00,
2013-08-02 04:02:00,61.0,60.0,29.96,North,6,0.0,0.0,96,0.00,,,-99.99,,2013-08-02 08:02:00,
2013-08-02 04:12:00,61.0,60.0,29.96,North,6,0.0,0.0,96,0.00,,,-99.99,,2013-08-02 08:12:00,
2013-08-02 04:22:00,60.0,59.0,29.96,North,6,0.0,0.0,96,0.00,,,-99.99,,2013-08-02 08:22:00,
2013-08-02 04:33:00,60.0,59.0,29.96,North,6,0.0,0.0,97,0.00,,,-99.99,,2013-08-02 08:33:00,
2013-08-02 04:43:00,60.0,59.0,29.96,North,6,0.0,0.0,97,0.00,,,-99.99,,2013-08-02 08:43:00,
2013-08-02 04:54:00,60.0,59.0,29.96,North,6,0.0,0.0,97,0.00,,,-99.99,,2013-08-02 08:54:00,
2013-08-02 05:02:00,60.0,59.0,29.96,North,6,0.0,0.0,97,0.00,,,-99.99,,2013-08-02 09:02:00,
2013-08-02 05:03:00,60.0,59.0,29.96,North,6,0.0,0.0,97,0.00,,,-99.99,,2013-08-02 09:03:00,
2013-08-02 05:12:00,60.0,59.0,29.96,North,6,0.0,0.0,97,0.00,,,-99.99,,2013-08-02 09:12:00,
2013-08-02 05:23:00,60.0,59.0,29.96,North,6,0.0,0.0,97,0.00,,,-99.99,,2013-08-02 09:23:00,
2013-08-02 05:33:00,60.0,59.0,29.96,North,6,0.0,0.0,97,0.00,,,-99.99,,2013-08-02 09:33:00,
2013-08-02 05:44:00,60.0,59.0,29.96,North,6,0.0,0.0,97,0.00,,,-99.99,,2013-08-02 09:44:00,
2013-08-02 05:53:00,60.0,59.0,29.96,North,6,0.0,0.0,97,0.00,,,-99.99,,2013-08-02 09:53:00,
2013-08-02 06:12:00,60.0,59.0,29.97,North,6,0.0,0.0,97,0.00,,,-99.99,,2013-08-02 10:12:00,
2013-08-02 06:23:00,60.0,59.0,29.97,North,6,0.0,0.0,98,0.00,,,-99.99,,2013-08-02 10:23:00,
2013-08-02 06:33:00,60.0,59.0,29.97,North,6,0.0,0.0,98,0.00,,,-99.99,,2013-08-02 10:33:00,
2013-08-02 06:43:00,60.0,59.0,29.97,North,6,0.0,0.0,98,0.00,,,-99.99,,2013-08-02 10:43:00,
2013-08-02 06:52:00,59.0,58.0,29.98,North,6,0.0,0.0,98,0.00,,,-99.99,,2013-08-02 10:52:00,
2013-08-02 07:02:00,60.0,59.0,29.98,North,6,0.0,0.0,98,0.00,,,-99.99,,2013-08-02 11:02:00,
2013-08-02 07:12:00,60.0,59.0,29.98,North,6,0.0,0.0,98,0.00,,,-99.99,,2013-08-02 11:12:00,
2013-08-02 07:23:00,60.0,59.0,29.98,North,6,0.0,0.0,98,0.00,,,-99.99,,2013-08-02 11:23:00,
2013-08-02 07:33:00,60.0,59.0,30.01,North,6,0.0,0.0,97,0.00,,,-99.99,,2013-08-02 11:33:00,
2013-08-02 07:43:00,60.0,59.0,30.01,North,6,0.0,0.0,97,0.00,,,-99.99,,2013-08-02 11:43:00,
2013-08-02 07:52:00,60.0,59.0,30.01,North,6,0.0,0.0,97,0.00,,,-99.99,,2013-08-02 11:52:00,
2013-08-02 08:02:00,60.0,59.0,30.01,North,6,0.0,0.0,97,0.00,,,-99.99,,2013-08-02 12:02:00,
2013-08-02 08:22:00,64.0,63.0,30.01,North,6,0.0,0.0,95,0.00,,,-99.99,,2013-08-02 12:22:00,
2013-08-02 08:33:00,65.0,64.0,30.01,North,6,0.0,0.0,95,0.00,,,-99.99,,2013-08-02 12:33:00,
2013-08-02 08:43:00,65.0,64.0,30.01,North,6,0.0,0.0,95,0.00,,,-99.99,,2013-08-02 12:43:00,
2013-08-02 08:52:00,65.0,64.0,30.01,North,6,0.0,0.0,95,0.00,,,-99.99,,2013-08-02 12:52:00,
2013-08-02 09:03:00,65.0,64.0,30.01,North,6,0.0,0.0,95,0.00,,,-99.99,,2013-08-02 13:03:00,
2013-08-02 11:12:00,70.0,62.0,30.01,SSW,196,4.0,10.0,76,0.00,,,-99.99,,2013-08-02 15:12:00,
2013-08-02 11:22:00,70.0,62.0,30.01,SSW,196,4.0,10.0,76,0.00,,,-99.99,,2013-08-02 15:22:00,
2013-08-02 13:52:00,75.0,63.0,30.02,SSW,204,5.0,11.0,66,0.00,,,-99.99,,2013-08-02 17:52:00,
2013-08-02 19:12:00,75.0,64.0,30.01,SW,216,1.0,9.0,69,0.00,,,-99.99,,2013-08-02 23:12:00,
2013-08-02 19:22:00,75.0,64.0,30.01,SW,216,1.0,9.0,69,0.00,,,-99.99,,2013-08-02 23:22:00,
2013-08-02 19:32:00,75.0,64.0,30.01,SW,216,1.0,9.0,69,0.00,,,-99.99,,2013-08-02 23:32:00,
2013-08-02 19:43:00,74.0,64.0,30.01,SW,216,2.0,8.0,72,0.00,,,-99.99,,2013-08-02 23:43:00,
2013-08-02 19:53:00,73.0,64.0,30.01,SSE,157,0.0,5.0,74,0.00,,,-99.99,,2013-08-02 23:53:00,
2013-08-02 20:02:00,73.0,64.0,30.01,SSE,157,0.0,5.0,74,0.00,,,-99.99,,2013-08-03 00:02:00,
2013-08-02 20:12:00,73.0,64.0,30.01,SSE,157,0.0,5.0,74,0.00,,,-99.99,,2013-08-03 00:12:00,
2013-08-02 20:22:00,72.0,64.0,30.01,South,173,0.0,0.0,76,0.00,,,-99.99,,2013-08-03 00:22:00,
2013-08-02 20:43:00,72.0,65.0,29.99,South,173,0.0,0.0,78,0.00,,,-99.99,,2013-08-03 00:43:00,
2013-08-02 20:52:00,71.0,64.0,29.99,South,173,0.0,0.0,79,0.00,,,-99.99,,2013-08-03 00:52:00,
2013-08-02 21:03:00,71.0,65.0,29.99,South,173,0.0,0.0,80,0.00,,,-99.99,,2013-08-03 01:03:00,
2013-08-02 21:12:00,70.0,64.0,30.01,South,173,0.0,0.0,81,0.00,,,-99.99,,2013-08-03 01:12:00,
2013-08-02 21:42:00,70.0,64.0,30.01,South,173,0.0,0.0,82,0.00,,,-99.99,,2013-08-03 01:42:00,
2013-08-02 21:53:00,70.0,64.0,30.01,South,173,0.0,0.0,82,0.00,,,-99.99,,2013-08-03 01:53:00,
2013-08-02 22:02:00,70.0,64.0,30.01,South,173,0.0,0.0,82,0.00,,,-99.99,,2013-08-03 02:02:00,
2013-08-02 23:53:00,68.0,64.0,30.01,SSE,148,1.0,5.0,88,0.00,,,-99.99,,2013-08-03 03:53:00,